sensor_id;sensor_type;location;lat;lon;timestamp;pressure;altitude;pressure_sealevel;temperature;humidity
61345;BME280;47216;42.656;23.232;2023-01-15T00:01:56;94282.34;;;6.50;66.08
61345;BME280;47216;42.656;23.232;2023-01-15T00:04:22;94283.78;;;6.46;66.24
61345;BME280;47216;42.656;23.232;2023-01-15T00:06:49;94283.63;;;6.41;66.45
61345;BME280;47216;42.656;23.232;2023-01-15T00:09:17;94275.84;;;6.41;65.81
61345;BME280;47216;42.656;23.232;2023-01-15T00:11:43;94282.41;;;6.43;66.36
61345;BME280;47216;42.656;23.232;2023-01-15T00:14:10;94278.59;;;6.46;66.40
61345;BME280;47216;42.656;23.232;2023-01-15T00:16:37;94272.88;;;6.37;66.60
61345;BME280;47216;42.656;23.232;2023-01-15T00:19:05;94285.81;;;6.37;66.44
61345;BME280;47216;42.656;23.232;2023-01-15T00:21:34;94281.50;;;6.31;66.69
61345;BME280;47216;42.656;23.232;2023-01-15T00:24:01;94290.47;;;6.28;66.54
61345;BME280;47216;42.656;23.232;2023-01-15T00:26:46;94288.25;;;6.32;66.41
61345;BME280;47216;42.656;23.232;2023-01-15T00:29:30;94289.19;;;6.38;66.38
61345;BME280;47216;42.656;23.232;2023-01-15T00:31:59;94285.47;;;6.34;66.44
61345;BME280;47216;42.656;23.232;2023-01-15T00:34:26;94281.84;;;6.35;66.51
61345;BME280;47216;42.656;23.232;2023-01-15T00:36:53;94281.50;;;6.31;66.28
61345;BME280;47216;42.656;23.232;2023-01-15T00:39:20;94283.53;;;6.22;66.13
61345;BME280;47216;42.656;23.232;2023-01-15T00:41:49;94283.97;;;6.19;66.25
61345;BME280;47216;42.656;23.232;2023-01-15T00:44:16;94280.94;;;6.22;66.90
61345;BME280;47216;42.656;23.232;2023-01-15T00:46:42;94277.94;;;6.25;66.57
61345;BME280;47216;42.656;23.232;2023-01-15T00:49:09;94278.31;;;6.29;66.32
61345;BME280;47216;42.656;23.232;2023-01-15T00:51:36;94270.16;;;6.25;66.69
61345;BME280;47216;42.656;23.232;2023-01-15T00:54:03;94269.00;;;6.21;66.56
61345;BME280;47216;42.656;23.232;2023-01-15T00:56:29;94267.41;;;6.20;66.61
61345;BME280;47216;42.656;23.232;2023-01-15T00:58:59;94270.44;;;6.17;67.11
61345;BME280;47216;42.656;23.232;2023-01-15T01:01:26;94278.78;;;6.19;67.17
61345;BME280;47216;42.656;23.232;2023-01-15T01:03:52;94278.78;;;6.19;66.65
61345;BME280;47216;42.656;23.232;2023-01-15T01:06:19;94279.53;;;6.26;67.04
61345;BME280;47216;42.656;23.232;2023-01-15T01:08:46;94278.09;;;6.30;67.21
61345;BME280;47216;42.656;23.232;2023-01-15T01:11:14;94273.09;;;6.36;66.94
61345;BME280;47216;42.656;23.232;2023-01-15T01:13:41;94269.34;;;6.31;66.85
61345;BME280;47216;42.656;23.232;2023-01-15T01:18:50;94272.03;;;6.12;66.95
61345;BME280;47216;42.656;23.232;2023-01-15T01:21:17;94268.25;;;6.14;67.17
61345;BME280;47216;42.656;23.232;2023-01-15T01:23:43;94264.44;;;6.17;67.38
61345;BME280;47216;42.656;23.232;2023-01-15T01:26:10;94263.66;;;6.16;67.38
61345;BME280;47216;42.656;23.232;2023-01-15T01:28:38;94262.47;;;6.12;66.92
61345;BME280;47216;42.656;23.232;2023-01-15T01:31:04;94266.69;;;6.13;67.01
61345;BME280;47216;42.656;23.232;2023-01-15T01:33:31;94264.25;;;6.18;66.78
61345;BME280;47216;42.656;23.232;2023-01-15T01:35:59;94264.84;;;6.20;66.71
61345;BME280;47216;42.656;23.232;2023-01-15T01:38:25;94269.06;;;6.15;66.96
61345;BME280;47216;42.656;23.232;2023-01-15T01:40:52;94269.88;;;6.08;66.93
61345;BME280;47216;42.656;23.232;2023-01-15T01:43:19;94262.94;;;6.02;67.22
61345;BME280;47216;42.656;23.232;2023-01-15T01:45:46;94261.56;;;6.00;67.08
61345;BME280;47216;42.656;23.232;2023-01-15T01:48:13;94263.38;;;5.99;67.28
61345;BME280;47216;42.656;23.232;2023-01-15T01:50:41;94258.63;;;5.89;67.44
61345;BME280;47216;42.656;23.232;2023-01-15T01:53:10;94260.63;;;5.87;67.81
61345;BME280;47216;42.656;23.232;2023-01-15T01:55:38;94269.75;;;5.90;67.67
61345;BME280;47216;42.656;23.232;2023-01-15T01:58:05;94262.78;;;5.90;67.58
61345;BME280;47216;42.656;23.232;2023-01-15T02:00:34;94258.97;;;5.93;67.75
61345;BME280;47216;42.656;23.232;2023-01-15T02:03:01;94257.03;;;5.95;67.50
61345;BME280;47216;42.656;23.232;2023-01-15T02:05:31;94258.63;;;5.89;67.79
61345;BME280;47216;42.656;23.232;2023-01-15T02:07:58;94256.66;;;5.85;67.84
61345;BME280;47216;42.656;23.232;2023-01-15T02:10:26;94258.25;;;5.79;67.93
61345;BME280;47216;42.656;23.232;2023-01-15T02:12:54;94256.28;;;5.81;67.91
61345;BME280;47216;42.656;23.232;2023-01-15T02:15:25;94258.03;;;5.87;68.23
61345;BME280;47216;42.656;23.232;2023-01-15T02:17:54;94246.66;;;5.88;68.10
61345;BME280;47216;42.656;23.232;2023-01-15T02:20:27;94255.03;;;5.90;67.90
61345;BME280;47216;42.656;23.232;2023-01-15T02:23:01;94249.25;;;5.88;67.84
61345;BME280;47216;42.656;23.232;2023-01-15T02:25:37;94256.06;;;5.83;67.96
61345;BME280;47216;42.656;23.232;2023-01-15T02:28:12;94250.66;;;5.84;68.19
61345;BME280;47216;42.656;23.232;2023-01-15T02:30:42;94246.34;;;5.78;68.32
61345;BME280;47216;42.656;23.232;2023-01-15T02:33:10;94249.91;;;5.77;68.10
61345;BME280;47216;42.656;23.232;2023-01-15T02:35:40;94243.91;;;5.83;68.30
61345;BME280;47216;42.656;23.232;2023-01-15T02:38:10;94245.88;;;5.88;68.05
61345;BME280;47216;42.656;23.232;2023-01-15T02:40:38;94244.31;;;5.87;67.66
61345;BME280;47216;42.656;23.232;2023-01-15T02:43:07;94236.75;;;5.85;67.73
61345;BME280;47216;42.656;23.232;2023-01-15T02:45:38;94229.78;;;5.86;68.03
61345;BME280;47216;42.656;23.232;2023-01-15T02:48:07;94230.56;;;5.86;67.92
61345;BME280;47216;42.656;23.232;2023-01-15T02:50:36;94235.56;;;5.81;67.53
61345;BME280;47216;42.656;23.232;2023-01-15T02:53:06;94241.78;;;5.74;68.03
61345;BME280;47216;42.656;23.232;2023-01-15T02:55:34;94237.22;;;5.69;68.25
61345;BME280;47216;42.656;23.232;2023-01-15T02:58:06;94239.81;;;5.69;68.38
61345;BME280;47216;42.656;23.232;2023-01-15T03:00:35;94240.41;;;5.71;68.12
61345;BME280;47216;42.656;23.232;2023-01-15T03:03:06;94243.97;;;5.70;68.55
61345;BME280;47216;42.656;23.232;2023-01-15T03:05:35;94246.56;;;5.70;68.06
61345;BME280;47216;42.656;23.232;2023-01-15T03:08:04;94242.16;;;5.39;68.44
61345;BME280;47216;42.656;23.232;2023-01-15T03:10:34;94249.34;;;5.30;68.32
61345;BME280;47216;42.656;23.232;2023-01-15T03:13:04;94249.34;;;5.30;68.72
61345;BME280;47216;42.656;23.232;2023-01-15T03:15:38;94243.34;;;5.36;68.60
61345;BME280;47216;42.656;23.232;2023-01-15T03:18:25;94234.81;;;5.29;68.26
61345;BME280;47216;42.656;23.232;2023-01-15T03:20:53;94240.63;;;5.18;68.16
61345;BME280;47216;42.656;23.232;2023-01-15T03:23:22;94238.44;;;5.15;67.71
61345;BME280;47216;42.656;23.232;2023-01-15T03:25:49;94236.53;;;4.97;68.86
61345;BME280;47216;42.656;23.232;2023-01-15T03:28:18;94236.38;;;4.58;69.42
61345;BME280;47216;42.656;23.232;2023-01-15T03:30:45;94237.97;;;4.39;70.16
61345;BME280;47216;42.656;23.232;2023-01-15T03:33:11;94240.56;;;4.26;70.16
61345;BME280;47216;42.656;23.232;2023-01-15T03:35:44;94244.53;;;4.02;71.76
61345;BME280;47216;42.656;23.232;2023-01-15T03:38:12;94237.16;;;3.99;71.13
61345;BME280;47216;42.656;23.232;2023-01-15T03:40:40;94231.59;;;3.89;71.70
61345;BME280;47216;42.656;23.232;2023-01-15T03:43:11;94241.47;;;3.78;73.02
61345;BME280;47216;42.656;23.232;2023-01-15T03:45:58;94240.25;;;3.61;72.99
61345;BME280;47216;42.656;23.232;2023-01-15T03:48:29;94252.91;;;3.49;72.89
61345;BME280;47216;42.656;23.232;2023-01-15T03:51:00;94241.78;;;3.49;73.70
61345;BME280;47216;42.656;23.232;2023-01-15T03:53:30;94245.41;;;3.54;73.12
61345;BME280;47216;42.656;23.232;2023-01-15T03:56:01;94238.88;;;3.58;74.12
61345;BME280;47216;42.656;23.232;2023-01-15T03:58:30;94234.31;;;3.61;73.66
61345;BME280;47216;42.656;23.232;2023-01-15T04:01:01;94237.72;;;3.81;73.42
61345;BME280;47216;42.656;23.232;2023-01-15T04:03:29;94232.75;;;3.79;72.56
61345;BME280;47216;42.656;23.232;2023-01-15T04:06:00;94227.22;;;3.96;72.32
61345;BME280;47216;42.656;23.232;2023-01-15T04:08:28;94236.34;;;3.92;72.60
61345;BME280;47216;42.656;23.232;2023-01-15T04:10:57;94226.47;;;4.02;72.14
61345;BME280;47216;42.656;23.232;2023-01-15T04:13:23;94232.41;;;4.22;72.34
61345;BME280;47216;42.656;23.232;2023-01-15T04:15:52;94228.03;;;4.43;71.43
61345;BME280;47216;42.656;23.232;2023-01-15T04:18:19;94237.38;;;4.44;70.43
61345;BME280;47216;42.656;23.232;2023-01-15T04:20:46;94234.78;;;4.57;70.17
61345;BME280;47216;42.656;23.232;2023-01-15T04:23:14;94229.22;;;4.74;70.10
61345;BME280;47216;42.656;23.232;2023-01-15T04:25:41;94231.72;;;4.94;69.71
61345;BME280;47216;42.656;23.232;2023-01-15T04:28:07;94238.69;;;5.07;69.75
61345;BME280;47216;42.656;23.232;2023-01-15T04:30:34;94237.03;;;5.19;69.45
61345;BME280;47216;42.656;23.232;2023-01-15T04:33:02;94236.59;;;5.29;68.84
61345;BME280;47216;42.656;23.232;2023-01-15T04:35:29;94240.72;;;5.43;68.69
61345;BME280;47216;42.656;23.232;2023-01-15T04:37:56;94238.53;;;5.46;67.76
61345;BME280;47216;42.656;23.232;2023-01-15T04:40:24;94240.91;;;5.48;67.57
61345;BME280;47216;42.656;23.232;2023-01-15T04:43:09;94240.31;;;5.53;66.88
61345;BME280;47216;42.656;23.232;2023-01-15T04:45:53;94237.72;;;5.53;67.14
61345;BME280;47216;42.656;23.232;2023-01-15T04:48:20;94240.88;;;5.55;67.16
61345;BME280;47216;42.656;23.232;2023-01-15T04:50:47;94241.09;;;5.53;67.23
61345;BME280;47216;42.656;23.232;2023-01-15T04:53:13;94244.47;;;5.54;67.31
61345;BME280;47216;42.656;23.232;2023-01-15T04:55:41;94236.69;;;5.54;67.10
61345;BME280;47216;42.656;23.232;2023-01-15T04:58:08;94245.25;;;5.54;67.37
61345;BME280;47216;42.656;23.232;2023-01-15T05:00:35;94245.06;;;5.56;66.90
61345;BME280;47216;42.656;23.232;2023-01-15T05:03:01;94239.69;;;5.57;66.56
61345;BME280;47216;42.656;23.232;2023-01-15T05:05:28;94238.88;;;5.57;66.56
61345;BME280;47216;42.656;23.232;2023-01-15T05:07:56;94239.47;;;5.52;66.63
61345;BME280;47216;42.656;23.232;2023-01-15T05:10:23;94241.69;;;5.48;66.52
61345;BME280;47216;42.656;23.232;2023-01-15T05:12:51;94249.50;;;5.42;65.99
61345;BME280;47216;42.656;23.232;2023-01-15T05:15:17;94249.94;;;5.32;66.16
61345;BME280;47216;42.656;23.232;2023-01-15T05:17:44;94248.16;;;5.26;66.78
61345;BME280;47216;42.656;23.232;2023-01-15T05:20:11;94249.53;;;5.22;66.35
61345;BME280;47216;42.656;23.232;2023-01-15T05:22:39;94245.22;;;5.16;66.45
61345;BME280;47216;42.656;23.232;2023-01-15T05:25:05;94253.34;;;5.13;66.31
61345;BME280;47216;42.656;23.232;2023-01-15T05:27:32;94249.41;;;5.03;66.34
61345;BME280;47216;42.656;23.232;2023-01-15T05:30:00;94246.66;;;4.92;67.24
61345;BME280;47216;42.656;23.232;2023-01-15T05:32:26;94259.38;;;4.80;67.05
61345;BME280;47216;42.656;23.232;2023-01-15T05:34:53;94252.25;;;4.69;67.28
61345;BME280;47216;42.656;23.232;2023-01-15T05:37:19;94259.81;;;4.57;66.81
61345;BME280;47216;42.656;23.232;2023-01-15T05:39:46;94260.59;;;4.31;68.20
61345;BME280;47216;42.656;23.232;2023-01-15T05:42:13;94263.97;;;4.31;67.82
61345;BME280;47216;42.656;23.232;2023-01-15T05:44:39;94259.00;;;4.30;68.26
61345;BME280;47216;42.656;23.232;2023-01-15T05:47:08;94258.63;;;4.19;67.51
61345;BME280;47216;42.656;23.232;2023-01-15T05:49:35;94262.38;;;4.17;68.21
61345;BME280;47216;42.656;23.232;2023-01-15T05:52:01;94271.72;;;4.11;68.27
61345;BME280;47216;42.656;23.232;2023-01-15T05:54:29;94270.91;;;4.11;69.38
61345;BME280;47216;42.656;23.232;2023-01-15T05:56:56;94277.25;;;4.08;69.09
61345;BME280;47216;42.656;23.232;2023-01-15T05:59:23;94273.28;;;4.06;68.98
61345;BME280;47216;42.656;23.232;2023-01-15T06:01:50;94265.97;;;4.09;68.90
61345;BME280;47216;42.656;23.232;2023-01-15T06:04:18;94272.28;;;4.13;68.73
61345;BME280;47216;42.656;23.232;2023-01-15T06:06:46;94276.66;;;4.13;68.56
61345;BME280;47216;42.656;23.232;2023-01-15T06:09:13;94274.09;;;4.13;68.80
61345;BME280;47216;42.656;23.232;2023-01-15T06:11:40;94278.28;;;4.14;68.99
61345;BME280;47216;42.656;23.232;2023-01-15T06:14:06;94279.63;;;4.03;68.61
61345;BME280;47216;42.656;23.232;2023-01-15T06:16:33;94272.47;;;3.98;67.99
61345;BME280;47216;42.656;23.232;2023-01-15T06:19:00;94272.66;;;3.97;69.11
61345;BME280;47216;42.656;23.232;2023-01-15T06:21:29;94277.63;;;3.92;68.50
61345;BME280;47216;42.656;23.232;2023-01-15T06:23:56;94267.72;;;3.95;69.22
61345;BME280;47216;42.656;23.232;2023-01-15T06:26:23;94264.94;;;4.04;69.11
61345;BME280;47216;42.656;23.232;2023-01-15T06:28:49;94264.94;;;4.04;68.68
61345;BME280;47216;42.656;23.232;2023-01-15T06:31:18;94262.94;;;3.99;68.82
61345;BME280;47216;42.656;23.232;2023-01-15T06:33:45;94270.91;;;3.97;69.13
61345;BME280;47216;42.656;23.232;2023-01-15T06:36:12;94264.94;;;4.04;68.98
61345;BME280;47216;42.656;23.232;2023-01-15T06:38:40;94270.09;;;4.04;69.10
61345;BME280;47216;42.656;23.232;2023-01-15T06:41:08;94270.13;;;4.10;69.31
61345;BME280;47216;42.656;23.232;2023-01-15T06:44:00;94266.94;;;4.08;69.78
61345;BME280;47216;42.656;23.232;2023-01-15T06:46:44;94269.72;;;4.13;69.43
61345;BME280;47216;42.656;23.232;2023-01-15T06:49:28;94266.94;;;4.15;69.35
61345;BME280;47216;42.656;23.232;2023-01-15T06:51:55;94269.53;;;4.15;69.97
61345;BME280;47216;42.656;23.232;2023-01-15T06:54:23;94272.31;;;4.07;69.71
61345;BME280;47216;42.656;23.232;2023-01-15T06:56:49;94268.31;;;4.04;69.52
61345;BME280;47216;42.656;23.232;2023-01-15T06:59:16;94264.56;;;4.07;70.47
61345;BME280;47216;42.656;23.232;2023-01-15T07:01:43;94264.56;;;4.07;70.14
61345;BME280;47216;42.656;23.232;2023-01-15T07:04:09;94268.09;;;3.99;70.42
61345;BME280;47216;42.656;23.232;2023-01-15T07:06:36;94273.72;;;4.16;69.61
61345;BME280;47216;42.656;23.232;2023-01-15T07:09:03;94266.97;;;4.21;69.97
61345;BME280;47216;42.656;23.232;2023-01-15T07:11:31;94260.19;;;4.20;69.34
61345;BME280;47216;42.656;23.232;2023-01-15T07:13:58;94257.81;;;4.19;70.16
61345;BME280;47216;42.656;23.232;2023-01-15T07:16:31;94264.56;;;4.13;69.80
61345;BME280;47216;42.656;23.232;2023-01-15T07:18:57;94271.72;;;4.18;69.41
61345;BME280;47216;42.656;23.232;2023-01-15T07:21:24;94275.28;;;4.17;69.60
61345;BME280;47216;42.656;23.232;2023-01-15T07:23:50;94268.94;;;4.26;69.43
61345;BME280;47216;42.656;23.232;2023-01-15T07:26:17;94275.28;;;4.17;69.87
61345;BME280;47216;42.656;23.232;2023-01-15T07:28:45;94284.63;;;4.11;69.83
61345;BME280;47216;42.656;23.232;2023-01-15T07:31:11;94274.50;;;4.30;70.43
61345;BME280;47216;42.656;23.232;2023-01-15T07:33:38;94275.50;;;4.29;69.81
61345;BME280;47216;42.656;23.232;2023-01-15T07:36:05;94286.41;;;4.17;69.54
61345;BME280;47216;42.656;23.232;2023-01-15T07:38:31;94280.66;;;4.29;69.25
61345;BME280;47216;42.656;23.232;2023-01-15T07:40:58;94286.38;;;4.04;69.86
61345;BME280;47216;42.656;23.232;2023-01-15T07:43:38;94283.81;;;4.17;70.48
61345;BME280;47216;42.656;23.232;2023-01-15T07:46:24;94281.88;;;4.39;69.12
61345;BME280;47216;42.656;23.232;2023-01-15T07:49:08;94281.88;;;4.46;68.85
61345;BME280;47216;42.656;23.232;2023-01-15T07:51:52;94280.69;;;4.49;68.60
61345;BME280;47216;42.656;23.232;2023-01-15T07:54:19;94270.91;;;4.71;69.66
61345;BME280;47216;42.656;23.232;2023-01-15T07:56:45;94263.34;;;4.76;69.35
61345;BME280;47216;42.656;23.232;2023-01-15T07:59:12;94267.72;;;4.82;68.45
61345;BME280;47216;42.656;23.232;2023-01-15T08:01:40;94258.59;;;4.79;68.03
61345;BME280;47216;42.656;23.232;2023-01-15T08:04:06;94262.19;;;4.78;68.66
61345;BME280;47216;42.656;23.232;2023-01-15T08:06:34;94255.41;;;4.84;68.09
61345;BME280;47216;42.656;23.232;2023-01-15T08:09:00;94258.59;;;4.93;67.59
61345;BME280;47216;42.656;23.232;2023-01-15T08:11:27;94264.94;;;4.90;68.36
61345;BME280;47216;42.656;23.232;2023-01-15T08:14:16;94275.28;;;4.77;68.79
61345;BME280;47216;42.656;23.232;2023-01-15T08:17:02;94269.09;;;4.91;68.60
61345;BME280;47216;42.656;23.232;2023-01-15T08:19:28;94271.28;;;4.94;69.02
61345;BME280;47216;42.656;23.232;2023-01-15T08:21:55;94276.66;;;5.06;68.83
61345;BME280;47216;42.656;23.232;2023-01-15T08:24:22;94279.78;;;5.15;68.03
61345;BME280;47216;42.656;23.232;2023-01-15T08:26:48;94280.41;;;5.10;68.36
61345;BME280;47216;42.656;23.232;2023-01-15T08:29:15;94279.00;;;5.08;67.77
61345;BME280;47216;42.656;23.232;2023-01-15T08:31:41;94279.81;;;5.08;68.18
61345;BME280;47216;42.656;23.232;2023-01-15T08:34:09;94278.56;;;5.31;67.85
61345;BME280;47216;42.656;23.232;2023-01-15T08:36:36;94273.09;;;5.59;68.29
61345;BME280;47216;42.656;23.232;2023-01-15T08:39:02;94274.63;;;5.73;67.08
61345;BME280;47216;42.656;23.232;2023-01-15T08:41:29;94277.00;;;5.75;66.30
61345;BME280;47216;42.656;23.232;2023-01-15T08:43:56;94268.00;;;5.84;65.87
61345;BME280;47216;42.656;23.232;2023-01-15T08:46:22;94262.44;;;5.87;65.74
61345;BME280;47216;42.656;23.232;2023-01-15T08:48:49;94268.56;;;5.99;65.38
61345;BME280;47216;42.656;23.232;2023-01-15T08:51:17;94265.75;;;6.01;65.02
61345;BME280;47216;42.656;23.232;2023-01-15T08:53:43;94275.25;;;6.07;64.79
61345;BME280;47216;42.656;23.232;2023-01-15T08:56:11;94264.66;;;6.15;64.89
61345;BME280;47216;42.656;23.232;2023-01-15T08:58:37;94267.19;;;6.28;64.00
61345;BME280;47216;42.656;23.232;2023-01-15T09:01:04;94262.91;;;6.41;63.63
61345;BME280;47216;42.656;23.232;2023-01-15T09:03:32;94268.66;;;6.43;63.89
61345;BME280;47216;42.656;23.232;2023-01-15T09:05:59;94266.22;;;6.48;63.50
61345;BME280;47216;42.656;23.232;2023-01-15T09:08:28;94264.56;;;6.53;63.36
61345;BME280;47216;42.656;23.232;2023-01-15T09:10:55;94259.34;;;6.60;63.16
61345;BME280;47216;42.656;23.232;2023-01-15T09:13:22;94263.75;;;6.60;62.20
61345;BME280;47216;42.656;23.232;2023-01-15T09:15:49;94256.13;;;6.65;61.73
61345;BME280;47216;42.656;23.232;2023-01-15T09:18:16;94261.31;;;6.65;61.21
61345;BME280;47216;42.656;23.232;2023-01-15T09:20:44;94256.06;;;6.71;61.53
61345;BME280;47216;42.656;23.232;2023-01-15T09:23:14;94253.56;;;6.83;61.29
61345;BME280;47216;42.656;23.232;2023-01-15T09:25:50;94247.53;;;6.89;62.79
61345;BME280;47216;42.656;23.232;2023-01-15T09:28:17;94236.16;;;6.90;61.53
61345;BME280;47216;42.656;23.232;2023-01-15T09:30:44;94238.75;;;6.90;61.96
61345;BME280;47216;42.656;23.232;2023-01-15T09:33:11;94237.50;;;6.93;61.13
61345;BME280;47216;42.656;23.232;2023-01-15T09:35:37;94231.03;;;7.02;62.65
61345;BME280;47216;42.656;23.232;2023-01-15T09:38:04;94233.38;;;7.10;60.76
61345;BME280;47216;42.656;23.232;2023-01-15T09:40:35;94231.34;;;7.12;61.54
61345;BME280;47216;42.656;23.232;2023-01-15T09:43:10;94224.34;;;7.13;60.49
61345;BME280;47216;42.656;23.232;2023-01-15T09:45:42;94216.94;;;7.17;61.92
61345;BME280;47216;42.656;23.232;2023-01-15T09:48:18;94218.81;;;7.28;60.45
61345;BME280;47216;42.656;23.232;2023-01-15T09:50:58;94208.28;;;7.23;59.42
61345;BME280;47216;42.656;23.232;2023-01-15T09:53:31;94204.91;;;7.22;60.15
61345;BME280;47216;42.656;23.232;2023-01-15T09:56:01;94199.00;;;7.15;59.91
61345;BME280;47216;42.656;23.232;2023-01-15T09:58:32;94195.50;;;7.09;59.75
61345;BME280;47216;42.656;23.232;2023-01-15T10:00:59;94197.63;;;6.94;60.31
61345;BME280;47216;42.656;23.232;2023-01-15T10:03:28;94192.16;;;7.02;61.04
61345;BME280;47216;42.656;23.232;2023-01-15T10:05:59;94185.13;;;7.09;60.75
61345;BME280;47216;42.656;23.232;2023-01-15T10:08:28;94177.47;;;7.14;60.20
61345;BME280;47216;42.656;23.232;2023-01-15T10:10:58;94168.59;;;7.22;59.80
61345;BME280;47216;42.656;23.232;2023-01-15T10:13:27;94165.78;;;7.24;60.51
61345;BME280;47216;42.656;23.232;2023-01-15T10:15:56;94168.16;;;7.25;60.25
61345;BME280;47216;42.656;23.232;2023-01-15T10:18:24;94157.00;;;7.25;59.60
61345;BME280;47216;42.656;23.232;2023-01-15T10:20:55;94162.31;;;7.30;60.18
61345;BME280;47216;42.656;23.232;2023-01-15T10:23:34;94157.69;;;7.32;59.98
61345;BME280;47216;42.656;23.232;2023-01-15T10:26:07;94148.25;;;7.38;59.11
61345;BME280;47216;42.656;23.232;2023-01-15T10:28:45;94150.50;;;7.34;60.20
61345;BME280;47216;42.656;23.232;2023-01-15T10:31:17;94146.00;;;7.41;59.51
61345;BME280;47216;42.656;23.232;2023-01-15T10:33:49;94139.38;;;7.45;58.95
61345;BME280;47216;42.656;23.232;2023-01-15T10:36:21;94138.34;;;7.46;59.81
61345;BME280;47216;42.656;23.232;2023-01-15T10:38:52;94132.28;;;7.52;60.05
61345;BME280;47216;42.656;23.232;2023-01-15T10:41:30;94121.03;;;7.58;59.59
61345;BME280;47216;42.656;23.232;2023-01-15T10:44:02;94116.84;;;7.57;59.17
61345;BME280;47216;42.656;23.232;2023-01-15T10:46:35;94110.53;;;7.53;59.11
61345;BME280;47216;42.656;23.232;2023-01-15T10:49:05;94100.69;;;7.55;59.75
61345;BME280;47216;42.656;23.232;2023-01-15T10:51:36;94099.91;;;7.55;59.04
61345;BME280;47216;42.656;23.232;2023-01-15T10:54:06;94100.84;;;7.61;59.93
61345;BME280;47216;42.656;23.232;2023-01-15T10:56:39;94094.75;;;7.67;59.40
61345;BME280;47216;42.656;23.232;2023-01-15T10:59:10;94089.91;;;7.70;59.06
61345;BME280;47216;42.656;23.232;2023-01-15T11:01:42;94087.41;;;7.64;59.42
61345;BME280;47216;42.656;23.232;2023-01-15T11:04:09;94085.50;;;7.71;59.14
61345;BME280;47216;42.656;23.232;2023-01-15T11:06:37;94074.66;;;7.62;59.34
61345;BME280;47216;42.656;23.232;2023-01-15T11:09:04;94072.19;;;7.67;59.47
61345;BME280;47216;42.656;23.232;2023-01-15T11:11:33;94069.16;;;7.70;59.43
61345;BME280;47216;42.656;23.232;2023-01-15T11:14:34;94059.25;;;7.79;58.64
61345;BME280;47216;42.656;23.232;2023-01-15T11:17:20;94073.09;;;7.73;58.40
61345;BME280;47216;42.656;23.232;2023-01-15T11:20:09;94062.16;;;7.71;59.83
61345;BME280;47216;42.656;23.232;2023-01-15T11:22:38;94059.09;;;7.74;59.86
61345;BME280;47216;42.656;23.232;2023-01-15T11:25:05;94057.63;;;7.78;60.17
61345;BME280;47216;42.656;23.232;2023-01-15T11:27:35;94056.41;;;7.92;59.74
61345;BME280;47216;42.656;23.232;2023-01-15T11:30:03;94048.19;;;7.95;58.46
61345;BME280;47216;42.656;23.232;2023-01-15T11:32:32;94041.84;;;7.91;58.81
61345;BME280;47216;42.656;23.232;2023-01-15T11:35:00;94043.09;;;7.89;59.80
61345;BME280;47216;42.656;23.232;2023-01-15T11:37:27;94037.22;;;7.93;58.71
61345;BME280;47216;42.656;23.232;2023-01-15T11:39:54;94037.81;;;7.95;59.44
61345;BME280;47216;42.656;23.232;2023-01-15T11:42:21;94032.25;;;8.04;60.23
61345;BME280;47216;42.656;23.232;2023-01-15T11:45:13;94026.38;;;8.08;59.54
61345;BME280;47216;42.656;23.232;2023-01-15T11:47:58;94021.06;;;8.15;58.55
61345;BME280;47216;42.656;23.232;2023-01-15T11:50:47;94026.50;;;8.02;59.10
61345;BME280;47216;42.656;23.232;2023-01-15T11:53:15;94021.28;;;8.02;59.06
61345;BME280;47216;42.656;23.232;2023-01-15T11:55:55;94010.00;;;8.08;59.67
61345;BME280;47216;42.656;23.232;2023-01-15T11:58:25;94016.66;;;8.04;59.38
61345;BME280;47216;42.656;23.232;2023-01-15T12:00:52;94016.81;;;8.09;59.56
61345;BME280;47216;42.656;23.232;2023-01-15T12:03:23;94016.44;;;8.05;59.01
61345;BME280;47216;42.656;23.232;2023-01-15T12:05:53;94011.59;;;8.09;59.88
61345;BME280;47216;42.656;23.232;2023-01-15T12:08:22;94011.94;;;8.12;59.37
61345;BME280;47216;42.656;23.232;2023-01-15T12:10:52;94015.88;;;8.15;60.54
61345;BME280;47216;42.656;23.232;2023-01-15T12:13:37;94010.34;;;8.23;58.24
61345;BME280;47216;42.656;23.232;2023-01-15T12:16:09;94005.38;;;8.21;59.31
61345;BME280;47216;42.656;23.232;2023-01-15T12:18:48;94000.06;;;8.28;58.04
61345;BME280;47216;42.656;23.232;2023-01-15T12:21:21;93993.28;;;8.27;58.01
61345;BME280;47216;42.656;23.232;2023-01-15T12:26:37;94001.41;;;8.19;59.25
61345;BME280;47216;42.656;23.232;2023-01-15T12:29:09;93989.47;;;8.18;59.84
61345;BME280;47216;42.656;23.232;2023-01-15T12:31:39;93986.75;;;8.13;59.87
61345;BME280;47216;42.656;23.232;2023-01-15T12:34:11;93985.19;;;8.12;58.87
61345;BME280;47216;42.656;23.232;2023-01-15T12:36:42;93991.06;;;8.07;59.15
61345;BME280;47216;42.656;23.232;2023-01-15T12:39:13;93985.63;;;8.09;59.25
61345;BME280;47216;42.656;23.232;2023-01-15T12:41:42;93978.38;;;8.11;59.00
61345;BME280;47216;42.656;23.232;2023-01-15T12:44:30;93977.94;;;8.14;59.41
61345;BME280;47216;42.656;23.232;2023-01-15T12:47:17;93984.72;;;8.15;59.91
61345;BME280;47216;42.656;23.232;2023-01-15T12:49:50;93977.47;;;8.17;59.41
61345;BME280;47216;42.656;23.232;2023-01-15T12:52:18;93972.28;;;8.17;59.46
61345;BME280;47216;42.656;23.232;2023-01-15T12:54:50;93973.72;;;8.25;59.79
61345;BME280;47216;42.656;23.232;2023-01-15T12:57:20;93964.94;;;8.26;59.47
61345;BME280;47216;42.656;23.232;2023-01-15T12:59:52;93968.28;;;8.38;58.85
61345;BME280;47216;42.656;23.232;2023-01-15T13:02:20;93961.66;;;8.30;59.25
61345;BME280;47216;42.656;23.232;2023-01-15T13:04:55;93955.53;;;8.36;58.68
61345;BME280;47216;42.656;23.232;2023-01-15T13:07:24;93962.31;;;8.37;58.87
61345;BME280;47216;42.656;23.232;2023-01-15T13:09:55;93951.13;;;8.37;59.34
61345;BME280;47216;42.656;23.232;2023-01-15T13:12:25;93953.84;;;8.30;58.69
61345;BME280;47216;42.656;23.232;2023-01-15T13:14:53;93955.31;;;8.26;59.56
61345;BME280;47216;42.656;23.232;2023-01-15T13:17:22;93956.22;;;8.32;59.38
61345;BME280;47216;42.656;23.232;2023-01-15T13:20:00;93943.69;;;8.29;59.19